Lion — 3EZS4 — position and weather

sailwx.info

Track history (hours):
 
Tides and Currents Weather Stations Pressure Air Temp Water Temp Dewpoint Dewpoint Depression Visibility Wind Speed Wind Dir Waves Ship Positions

Lion

Last reported at 2018-Feb-14 12:08 UTC. Time now 2018-Feb-26 01:54 UTC.
Position N 35°57' E 030°24'.
Warning: this ship's position is 11 days out of date.

Length 169 m; draft 9.4 m.

Type: Cargo ship. MMSI: 373019000.

Date/timePositionNaut miles runAvg speedWind from/ knotsBaromVisibWave heightAir tempDewpointWater temp
2018-Feb-14 12:08N 35°57' E 030°24'110.3
2018-Feb-14 12:00N 35°57' E 030°23'233 9.3
2018-Feb-13 11:04N 37°28' E 025°56'1 9.8
2018-Feb-13 11:00N 37°28' E 025°55'5 9.7
2018-Feb-13 10:30N 37°32' E 025°51'  
2018-Feb-10 07:02N 46°22' E 030°52'110.2
2018-Feb-10 06:54N 46°23' E 030°51'4 9.6
2018-Feb-10 06:30N 46°27' E 030°50'4 7.3
2018-Feb-10 06:00N 46°30' E 030°47'1 2.3
2018-Feb-10 05:30N 46°29' E 030°45'0 0.2
2018-Feb-10 04:58N 46°29' E 030°45'0 0.0
2018-Feb-10 04:31N 46°29' E 030°45'0 0.0
2018-Feb-10 04:01N 46°29' E 030°45'0 0.0
2018-Feb-10 03:31N 46°29' E 030°45'0 0.0
2018-Feb-10 03:00N 46°29' E 030°45'0 0.0
2018-Feb-10 02:30N 46°29' E 030°45'0 0.0
2018-Feb-10 01:57N 46°29' E 030°45'0 0.0
2018-Feb-10 01:30N 46°29' E 030°45'0 0.0
2018-Feb-10 01:00N 46°29' E 030°45'0 0.0
2018-Feb-10 00:30N 46°29' E 030°45'0 0.0
2018-Feb-10 00:00N 46°29' E 030°45'0 0.0
2018-Feb-09 23:30N 46°29' E 030°45'0 0.0
2018-Feb-09 23:00N 46°29' E 030°45'0 0.0
2018-Feb-09 22:45N 46°29' E 030°45'0 0.0
2018-Feb-08 01:29N 46°29' E 030°45'0 0.0
2018-Feb-08 00:59N 46°29' E 030°45'0 0.0
2018-Feb-08 00:29N 46°29' E 030°45'0 0.0
2018-Feb-07 23:59N 46°29' E 030°45'0 0.0
2018-Feb-07 23:29N 46°29' E 030°45'0 0.0
2018-Feb-07 22:59N 46°29' E 030°45'0 0.0
2018-Feb-07 22:29N 46°29' E 030°45'0 0.0
2018-Feb-07 21:56N 46°29' E 030°45'0 0.0
2018-Feb-07 21:29N 46°29' E 030°45'0 0.0
2018-Feb-07 09:29N 46°29' E 030°45'0 0.0
2018-Feb-07 08:59N 46°29' E 030°45'0 0.0
2018-Feb-07 08:29N 46°29' E 030°45'0 0.0
2018-Feb-07 07:59N 46°29' E 030°45'0 0.0
2018-Feb-07 07:29N 46°29' E 030°45'0 0.0
2018-Feb-07 06:59N 46°29' E 030°45'0 0.0
2018-Feb-07 06:29N 46°29' E 030°45'0 0.0
2018-Feb-07 05:59N 46°29' E 030°45'0 0.0
2018-Feb-07 05:29N 46°29' E 030°45'0 0.0
2018-Feb-07 04:56N 46°29' E 030°45'0 0.0
2018-Feb-07 04:26N 46°29' E 030°45'0 0.0
2018-Feb-07 03:59N 46°29' E 030°45'0 0.0
2018-Feb-07 03:26N 46°29' E 030°45'0 0.0
2018-Feb-07 02:56N 46°29' E 030°45'0 0.0
2018-Feb-07 02:29N 46°29' E 030°45'0 0.0
2018-Feb-07 01:58N 46°29' E 030°45'0 0.0
2018-Feb-07 01:28N 46°29' E 030°45'0 0.0
2018-Feb-07 00:55N 46°29' E 030°45'0 0.0
2018-Feb-07 00:28N 46°29' E 030°45'0 0.0
2018-Feb-06 23:58N 46°29' E 030°45'0 0.0
2018-Feb-06 23:28N 46°29' E 030°45'0 0.0
2018-Feb-06 22:58N 46°29' E 030°45'0 0.0
2018-Feb-06 22:28N 46°29' E 030°45'0 0.0
2018-Feb-06 21:58N 46°29' E 030°45'0 0.0
2018-Feb-06 21:28N 46°29' E 030°45'0 0.0
2018-Feb-06 20:58N 46°29' E 030°45'0 0.0
2018-Feb-06 20:28N 46°29' E 030°45'0 0.0
2018-Feb-06 19:58N 46°29' E 030°45'0 0.0
2018-Feb-06 19:25N 46°29' E 030°45'0 0.0
2018-Feb-06 18:58N 46°29' E 030°45'0 0.0
2018-Feb-06 18:25N 46°29' E 030°45'0 0.0
2018-Feb-06 17:58N 46°29' E 030°45'0 0.0
2018-Feb-06 17:28N 46°29' E 030°45'0 0.0
2018-Feb-06 16:58N 46°29' E 030°45'0 0.0
2018-Feb-06 16:25N 46°29' E 030°45'0 0.0
2018-Feb-06 15:58N 46°29' E 030°45'0 0.0
2018-Feb-06 15:28N 46°29' E 030°45'0 0.0
2018-Feb-06 14:58N 46°29' E 030°45'0 0.0
2018-Feb-06 14:28N 46°29' E 030°45'0 0.0
2018-Feb-06 13:58N 46°29' E 030°45'0 0.0
2018-Feb-06 13:25N 46°29' E 030°45'0 0.0
2018-Feb-06 12:58N 46°29' E 030°45'0 0.0
2018-Feb-06 12:28N 46°29' E 030°45'0 0.0
2018-Feb-06 11:58N 46°29' E 030°45'0 0.0
2018-Feb-06 11:25N 46°29' E 030°45'0 0.0
2018-Feb-06 10:58N 46°29' E 030°45'0 0.0
2018-Feb-06 10:28N 46°29' E 030°45'0 0.0
2018-Feb-06 09:58N 46°29' E 030°45'0 0.0
2018-Feb-06 09:25N 46°29' E 030°45'0 0.0
2018-Feb-06 08:58N 46°29' E 030°45'0 0.0
2018-Feb-06 08:28N 46°29' E 030°45'0 0.0
2018-Feb-06 08:00N 46°29' E 030°45'0 0.0
2018-Feb-06 07:30N 46°29' E 030°45'0 0.0
2018-Feb-06 07:00N 46°29' E 030°45'0 0.0
2018-Feb-06 06:30N 46°29' E 030°45'0 0.0
2018-Feb-06 06:00N 46°29' E 030°45'0 0.0
2018-Feb-06 05:30N 46°29' E 030°45'0 0.0
2018-Feb-06 05:00N 46°29' E 030°45'0 0.0
2018-Feb-06 04:30N 46°29' E 030°45'0 0.0
2018-Feb-06 04:00N 46°29' E 030°45'0 0.0
2018-Feb-06 03:30N 46°29' E 030°45'0 0.0
2018-Feb-06 02:57N 46°29' E 030°45'0 0.0
2018-Feb-06 02:30N 46°29' E 030°45'0 0.0
2018-Feb-06 02:00N 46°29' E 030°45'0 0.0
2018-Feb-06 01:30N 46°29' E 030°45'0 0.0
2018-Feb-06 01:00N 46°29' E 030°45'0 0.0
2018-Feb-06 00:30N 46°29' E 030°45'0 0.0
2018-Feb-06 00:00N 46°29' E 030°45'0 0.0
2018-Feb-05 23:30N 46°29' E 030°45'0 0.0
2018-Feb-05 23:00N 46°29' E 030°45'0 0.0
2018-Feb-05 22:30N 46°29' E 030°45'0 0.0
2018-Feb-05 22:00N 46°29' E 030°45'0 0.0
2018-Feb-05 21:30N 46°29' E 030°45'0 0.0
2018-Feb-05 21:00N 46°29' E 030°45'0 0.0
2018-Feb-05 20:24N 46°29' E 030°45'0 0.0
2018-Feb-05 20:00N 46°29' E 030°45'0 0.0
2018-Feb-05 19:27N 46°29' E 030°45'0 0.0
2018-Feb-05 19:00N 46°29' E 030°45'0 0.0
2018-Feb-05 18:30N 46°29' E 030°45'0 0.0
2018-Feb-05 18:00N 46°29' E 030°45'0 0.0
2018-Feb-05 17:30N 46°29' E 030°45'0 0.0
2018-Feb-05 17:00N 46°29' E 030°45'0 0.0
2018-Feb-05 16:30N 46°29' E 030°45'0 0.0
2018-Feb-05 16:00N 46°29' E 030°45'0 0.0
2018-Feb-05 15:30N 46°29' E 030°45'0 0.0
2018-Feb-05 15:00N 46°29' E 030°45'0 0.0
2018-Feb-05 14:27N 46°29' E 030°45'0 0.0
2018-Feb-05 14:00N 46°29' E 030°45'0 0.0
2018-Feb-05 13:30N 46°29' E 030°45'0 0.0
2018-Feb-05 12:57N 46°29' E 030°45'0 0.0
2018-Feb-05 12:30N 46°29' E 030°45'0 0.0
2018-Feb-05 12:00N 46°29' E 030°45'0 0.0
2018-Feb-05 11:30N 46°29' E 030°45'0 0.0
2018-Feb-05 11:00N 46°29' E 030°45'0 0.0
2018-Feb-05 10:27N 46°29' E 030°45'0 0.0
2018-Feb-05 10:00N 46°29' E 030°45'0 0.0
2018-Feb-05 09:30N 46°29' E 030°45'0 0.0
2018-Feb-05 09:00N 46°29' E 030°45'1 2.9
2018-Feb-05 08:30N 46°30' E 030°47'2 4.6
2018-Feb-05 08:00N 46°30' E 030°50'1 1.1
2018-Feb-05 07:29N 46°30' E 030°51'0 0.0
2018-Feb-05 06:59N 46°30' E 030°51'0 0.0
2018-Feb-05 06:29N 46°30' E 030°51'0 0.0
2018-Feb-05 05:23N 46°30' E 030°51'0 0.0
2018-Feb-05 04:59N 46°30' E 030°51'0 0.1
2018-Feb-05 04:29N 46°30' E 030°51'0 0.1
2018-Feb-05 03:59N 46°30' E 030°51'0 0.8
2018-Feb-05 03:30N 46°30' E 030°52'1 1.3
2018-Feb-05 03:00N 46°29' E 030°51'3 6.0
2018-Feb-05 02:30N 46°26' E 030°52'4 7.6
2018-Feb-05 02:00N 46°22' E 030°53'  
Track history (hours):
 
Tides and Currents Weather Stations Pressure Air Temp Water Temp Dewpoint Dewpoint Depression Visibility Wind Speed Wind Dir Waves Ship Positions

Lion

Last reported at 2018-Feb-14 12:08 UTC. Time now 2018-Feb-26 01:54 UTC.
Position N 35°57' E 030°24'.
Warning: this ship's position is 11 days out of date.

Length 169 m; draft 9.4 m.

Type: Cargo ship. MMSI: 373019000.

Date/timePositionNaut miles runAvg speedWind from/ knotsBaromVisibWave heightAir tempDewpointWater temp
2018-Feb-14 12:08N 35°57' E 030°24'110.3
2018-Feb-14 12:00N 35°57' E 030°23'233 9.3
2018-Feb-13 11:04N 37°28' E 025°56'1 9.8
2018-Feb-13 11:00N 37°28' E 025°55'5 9.7
2018-Feb-13 10:30N 37°32' E 025°51'  
2018-Feb-10 07:02N 46°22' E 030°52'110.2
2018-Feb-10 06:54N 46°23' E 030°51'4 9.6
2018-Feb-10 06:30N 46°27' E 030°50'4 7.3
2018-Feb-10 06:00N 46°30' E 030°47'1 2.3
2018-Feb-10 05:30N 46°29' E 030°45'0 0.2
2018-Feb-10 04:58N 46°29' E 030°45'0 0.0
2018-Feb-10 04:31N 46°29' E 030°45'0 0.0
2018-Feb-10 04:01N 46°29' E 030°45'0 0.0
2018-Feb-10 03:31N 46°29' E 030°45'0 0.0
2018-Feb-10 03:00N 46°29' E 030°45'0 0.0
2018-Feb-10 02:30N 46°29' E 030°45'0 0.0
2018-Feb-10 01:57N 46°29' E 030°45'0 0.0
2018-Feb-10 01:30N 46°29' E 030°45'0 0.0
2018-Feb-10 01:00N 46°29' E 030°45'0 0.0
2018-Feb-10 00:30N 46°29' E 030°45'0 0.0
2018-Feb-10 00:00N 46°29' E 030°45'0 0.0
2018-Feb-09 23:30N 46°29' E 030°45'0 0.0
2018-Feb-09 23:00N 46°29' E 030°45'0 0.0
2018-Feb-09 22:45N 46°29' E 030°45'0 0.0
2018-Feb-08 01:29N 46°29' E 030°45'0 0.0
2018-Feb-08 00:59N 46°29' E 030°45'0 0.0
2018-Feb-08 00:29N 46°29' E 030°45'0 0.0
2018-Feb-07 23:59N 46°29' E 030°45'0 0.0
2018-Feb-07 23:29N 46°29' E 030°45'0 0.0
2018-Feb-07 22:59N 46°29' E 030°45'0 0.0
2018-Feb-07 22:29N 46°29' E 030°45'0 0.0
2018-Feb-07 21:56N 46°29' E 030°45'0 0.0
2018-Feb-07 21:29N 46°29' E 030°45'0 0.0
2018-Feb-07 09:29N 46°29' E 030°45'0 0.0
2018-Feb-07 08:59N 46°29' E 030°45'0 0.0
2018-Feb-07 08:29N 46°29' E 030°45'0 0.0
2018-Feb-07 07:59N 46°29' E 030°45'0 0.0
2018-Feb-07 07:29N 46°29' E 030°45'0 0.0
2018-Feb-07 06:59N 46°29' E 030°45'0 0.0
2018-Feb-07 06:29N 46°29' E 030°45'0 0.0
2018-Feb-07 05:59N 46°29' E 030°45'0 0.0
2018-Feb-07 05:29N 46°29' E 030°45'0 0.0
2018-Feb-07 04:56N 46°29' E 030°45'0 0.0
2018-Feb-07 04:26N 46°29' E 030°45'0 0.0
2018-Feb-07 03:59N 46°29' E 030°45'0 0.0
2018-Feb-07 03:26N 46°29' E 030°45'0 0.0
2018-Feb-07 02:56N 46°29' E 030°45'0 0.0
2018-Feb-07 02:29N 46°29' E 030°45'0 0.0
2018-Feb-07 01:58N 46°29' E 030°45'0 0.0
2018-Feb-07 01:28N 46°29' E 030°45'0 0.0
2018-Feb-07 00:55N 46°29' E 030°45'0 0.0
2018-Feb-07 00:28N 46°29' E 030°45'0 0.0
2018-Feb-06 23:58N 46°29' E 030°45'0 0.0
2018-Feb-06 23:28N 46°29' E 030°45'0 0.0
2018-Feb-06 22:58N 46°29' E 030°45'0 0.0
2018-Feb-06 22:28N 46°29' E 030°45'0 0.0
2018-Feb-06 21:58N 46°29' E 030°45'0 0.0
2018-Feb-06 21:28N 46°29' E 030°45'0 0.0
2018-Feb-06 20:58N 46°29' E 030°45'0 0.0
2018-Feb-06 20:28N 46°29' E 030°45'0 0.0
2018-Feb-06 19:58N 46°29' E 030°45'0 0.0
2018-Feb-06 19:25N 46°29' E 030°45'0 0.0
2018-Feb-06 18:58N 46°29' E 030°45'0 0.0
2018-Feb-06 18:25N 46°29' E 030°45'0 0.0
2018-Feb-06 17:58N 46°29' E 030°45'0 0.0
2018-Feb-06 17:28N 46°29' E 030°45'0 0.0
2018-Feb-06 16:58N 46°29' E 030°45'0 0.0
2018-Feb-06 16:25N 46°29' E 030°45'0 0.0
2018-Feb-06 15:58N 46°29' E 030°45'0 0.0
2018-Feb-06 15:28N 46°29' E 030°45'0 0.0
2018-Feb-06 14:58N 46°29' E 030°45'0 0.0
2018-Feb-06 14:28N 46°29' E 030°45'0 0.0
2018-Feb-06 13:58N 46°29' E 030°45'0 0.0
2018-Feb-06 13:25N 46°29' E 030°45'0 0.0
2018-Feb-06 12:58N 46°29' E 030°45'0 0.0
2018-Feb-06 12:28N 46°29' E 030°45'0 0.0
2018-Feb-06 11:58N 46°29' E 030°45'0 0.0
2018-Feb-06 11:25N 46°29' E 030°45'0 0.0
2018-Feb-06 10:58N 46°29' E 030°45'0 0.0
2018-Feb-06 10:28N 46°29' E 030°45'0 0.0
2018-Feb-06 09:58N 46°29' E 030°45'0 0.0
2018-Feb-06 09:25N 46°29' E 030°45'0 0.0
2018-Feb-06 08:58N 46°29' E 030°45'0 0.0
2018-Feb-06 08:28N 46°29' E 030°45'0 0.0
2018-Feb-06 08:00N 46°29' E 030°45'0 0.0
2018-Feb-06 07:30N 46°29' E 030°45'0 0.0
2018-Feb-06 07:00N 46°29' E 030°45'0 0.0
2018-Feb-06 06:30N 46°29' E 030°45'0 0.0
2018-Feb-06 06:00N 46°29' E 030°45'0 0.0
2018-Feb-06 05:30N 46°29' E 030°45'0 0.0
2018-Feb-06 05:00N 46°29' E 030°45'0 0.0
2018-Feb-06 04:30N 46°29' E 030°45'0 0.0
2018-Feb-06 04:00N 46°29' E 030°45'0 0.0
2018-Feb-06 03:30N 46°29' E 030°45'0 0.0
2018-Feb-06 02:57N 46°29' E 030°45'0 0.0
2018-Feb-06 02:30N 46°29' E 030°45'0 0.0
2018-Feb-06 02:00N 46°29' E 030°45'0 0.0
2018-Feb-06 01:30N 46°29' E 030°45'0 0.0
2018-Feb-06 01:00N 46°29' E 030°45'0 0.0
2018-Feb-06 00:30N 46°29' E 030°45'0 0.0
2018-Feb-06 00:00N 46°29' E 030°45'0 0.0
2018-Feb-05 23:30N 46°29' E 030°45'0 0.0
2018-Feb-05 23:00N 46°29' E 030°45'0 0.0
2018-Feb-05 22:30N 46°29' E 030°45'0 0.0
2018-Feb-05 22:00N 46°29' E 030°45'0 0.0
2018-Feb-05 21:30N 46°29' E 030°45'0 0.0
2018-Feb-05 21:00N 46°29' E 030°45'0 0.0
2018-Feb-05 20:24N 46°29' E 030°45'0 0.0
2018-Feb-05 20:00N 46°29' E 030°45'0 0.0
2018-Feb-05 19:27N 46°29' E 030°45'0 0.0
2018-Feb-05 19:00N 46°29' E 030°45'0 0.0
2018-Feb-05 18:30N 46°29' E 030°45'0 0.0
2018-Feb-05 18:00N 46°29' E 030°45'0 0.0
2018-Feb-05 17:30N 46°29' E 030°45'0 0.0
2018-Feb-05 17:00N 46°29' E 030°45'0 0.0
2018-Feb-05 16:30N 46°29' E 030°45'0 0.0
2018-Feb-05 16:00N 46°29' E 030°45'0 0.0
2018-Feb-05 15:30N 46°29' E 030°45'0 0.0
2018-Feb-05 15:00N 46°29' E 030°45'0 0.0
2018-Feb-05 14:27N 46°29' E 030°45'0 0.0
2018-Feb-05 14:00N 46°29' E 030°45'0 0.0
2018-Feb-05 13:30N 46°29' E 030°45'0 0.0
2018-Feb-05 12:57N 46°29' E 030°45'0 0.0
2018-Feb-05 12:30N 46°29' E 030°45'0 0.0
2018-Feb-05 12:00N 46°29' E 030°45'0 0.0
2018-Feb-05 11:30N 46°29' E 030°45'0 0.0
2018-Feb-05 11:00N 46°29' E 030°45'0 0.0
2018-Feb-05 10:27N 46°29' E 030°45'0 0.0
2018-Feb-05 10:00N 46°29' E 030°45'0 0.0
2018-Feb-05 09:30N 46°29' E 030°45'0 0.0
2018-Feb-05 09:00N 46°29' E 030°45'1 2.9
2018-Feb-05 08:30N 46°30' E 030°47'2 4.6
2018-Feb-05 08:00N 46°30' E 030°50'1 1.1
2018-Feb-05 07:29N 46°30' E 030°51'0 0.0
2018-Feb-05 06:59N 46°30' E 030°51'0 0.0
2018-Feb-05 06:29N 46°30' E 030°51'0 0.0
2018-Feb-05 05:23N 46°30' E 030°51'0 0.0
2018-Feb-05 04:59N 46°30' E 030°51'0 0.1
2018-Feb-05 04:29N 46°30' E 030°51'0 0.1
2018-Feb-05 03:59N 46°30' E 030°51'0 0.8
2018-Feb-05 03:30N 46°30' E 030°52'1 1.3
2018-Feb-05 03:00N 46°29' E 030°51'3 6.0
2018-Feb-05 02:30N 46°26' E 030°52'4 7.6
2018-Feb-05 02:00N 46°22' E 030°53'  

Dump ship's entire track history